Time;durP1;ratioP1;P1;durP2;ratioP2;P2;SDS_P1;SDS_P2;PMS_P1;PMS_P2;Temp;Humidity;BMP_temperature;BMP_pressure;BME280_temperature;BME280_humidity;BME280_pressure;Samples;Min_cycle;Max_cycle;Signal;HPM_P1;HPM_P2
2023/10/28 00:00:50;;;;;;;14.00;2.45;;;7.90;99.90;;;-144.05;87.45;57025.13;5001888;28;20384;-83
2023/10/28 00:03:16;;;;;;;6.68;2.58;;;11.40;99.90;;;-144.05;87.73;57031.50;5000978;28;20022;-82
2023/10/28 00:05:42;;;;;;;10.52;2.63;;;7.60;99.90;;;-144.05;87.62;57003.88;5016692;28;20057;-80
2023/10/28 00:08:09;;;;;;;7.20;2.53;;;8.10;99.90;;;-144.05;87.42;57014.50;4998702;28;20463;-81
2023/10/28 00:10:39;;;;;;;6.68;2.65;;;14.80;99.90;;;-144.05;87.47;57033.63;5016195;28;20038;-81
2023/10/28 00:13:08;;;;;;;7.78;2.35;;;11.50;99.90;;;-144.05;87.95;57006.00;5014592;28;20030;-83
2023/10/28 00:15:36;;;;;;;9.57;2.60;;;;;;;-144.05;88.01;57018.75;4996863;28;20113;-80
2023/10/28 00:18:03;;;;;;;9.18;2.58;;;7.10;99.90;;;-144.05;87.88;57008.13;5013365;28;20499;-80
2023/10/28 00:20:30;;;;;;;7.57;2.60;;;11.20;99.90;;;-144.05;87.60;56989.00;4994866;28;20117;-80
2023/10/28 00:22:57;;;;;;;10.40;2.72;;;7.50;99.90;;;-144.05;87.68;57046.38;5011591;28;20195;-79
2023/10/28 00:25:29;;;;;;;13.00;3.47;;;14.60;99.90;;;-144.05;87.69;56974.16;5011337;28;20033;-81
2023/10/28 00:27:55;;;;;;;10.38;3.03;;;14.40;99.90;;;-144.05;87.62;57010.25;5012585;28;20018;-80
2023/10/28 00:30:22;;;;;;;12.20;2.25;;;14.80;99.90;;;-144.05;87.46;57006.00;4994835;28;20030;-80
2023/10/28 00:32:52;;;;;;;9.90;2.47;;;9.60;99.90;;;-144.05;87.39;57003.88;4995175;28;20065;-80
2023/10/28 00:35:21;;;;;;;11.48;2.03;;;;;;;-144.05;86.92;56972.03;4995105;28;20054;-81
2023/10/28 00:37:48;;;;;;;13.23;3.20;;;14.50;99.90;;;-144.05;87.16;57020.88;4995850;28;20029;-81
2023/10/28 00:40:15;;;;;;;9.10;2.25;;;;;;;-144.05;87.00;57042.13;5013574;28;20176;-82
2023/10/28 00:42:41;;;;;;;9.73;2.42;;;;;;;-144.05;86.84;57003.88;5014035;28;20021;-80
2023/10/28 00:45:11;;;;;;;12.48;2.47;;;7.90;99.90;;;-144.05;87.37;57006.00;4996515;28;20403;-81
2023/10/28 00:47:42;;;;;;;11.52;2.55;;;14.70;99.90;;;-144.05;87.75;57014.50;4996766;28;20044;-80
2023/10/28 00:50:14;;;;;;;6.80;1.98;;;6.90;99.90;;;-144.05;87.27;57014.50;5014766;28;20026;-81
2023/10/28 00:52:45;;;;;;;8.57;2.50;;;9.60;99.90;;;-144.05;87.20;57023.00;4997203;28;20022;-81
2023/10/28 00:55:13;;;;;;;10.18;2.15;;;14.50;99.90;;;-144.05;87.02;57025.13;4997794;28;20026;-82
2023/10/28 00:57:41;;;;;;;11.60;2.38;;;;;;;-144.05;86.87;57016.63;5015379;28;20483;-83
2023/10/28 01:00:10;;;;;;;7.20;2.20;;;9.60;99.90;;;-144.05;86.95;57006.00;5015591;28;20026;-80
2023/10/28 01:02:42;;;;;;;8.27;2.55;;;9.60;99.90;;;-144.05;87.03;57008.13;5029759;28;20105;-81
2023/10/28 01:05:11;;;;;;;8.73;2.40;;;7.60;99.90;;;-144.05;87.25;57006.00;5017719;28;20021;-80
2023/10/28 01:07:50;;;;;;;11.05;2.20;;;7.80;99.90;;;-144.05;87.62;57031.50;5017807;28;20049;-82
2023/10/28 01:10:39;;;;;;;11.18;2.30;;;7.60;99.90;;;-144.05;87.42;57016.63;5019306;28;20049;-81
2023/10/28 01:13:05;;;;;;;6.90;2.40;;;8.00;99.90;;;-144.05;87.24;56982.66;5011425;28;20029;-80
2023/10/28 01:15:32;;;;;;;11.95;2.45;;;5.40;99.90;;;-144.05;87.04;57010.25;5011300;28;20021;-79
2023/10/28 01:17:58;;;;;;;7.30;2.42;;;;;;;-144.05;87.49;57016.63;4993481;28;20025;-79
2023/10/28 01:20:24;;;;;;;6.53;2.72;;;6.90;99.90;;;-144.05;87.22;57025.13;5010927;28;20510;-78
2023/10/28 01:22:50;;;;;;;7.35;2.25;;;;;;;-144.05;87.69;57003.88;5011247;28;20060;-81
2023/10/28 01:25:16;;;;;;;9.63;2.58;;;7.90;99.90;;;-144.05;87.61;56999.63;5019875;28;20080;-83
2023/10/28 01:27:44;;;;;;;14.13;2.42;;;;;;;-144.05;87.56;57014.50;5019291;28;20484;-81
2023/10/28 01:30:14;;;;;;;9.65;2.38;;;;;;;-144.05;87.41;57031.50;4999800;28;20093;-82
2023/10/28 01:32:42;;;;;;;9.40;2.53;;;10.00;99.90;;;-144.05;87.20;57020.88;5016061;28;20079;-81
2023/10/28 01:35:12;;;;;;;7.80;2.58;;;7.10;99.90;;;-144.05;87.43;57020.88;4999696;28;20040;-80
2023/10/28 01:37:38;;;;;;;13.13;2.22;;;;;;;-144.05;87.35;57003.88;5019678;28;20030;-79
2023/10/28 01:40:15;;;;;;;7.38;2.00;;;7.10;99.90;;;-144.05;87.25;56980.53;5000655;28;20106;-82
2023/10/28 01:42:42;;;;;;;7.93;2.28;;;14.70;99.90;;;-144.05;87.02;57001.75;5017583;28;20484;-82
2023/10/28 01:45:10;;;;;;;11.40;2.53;;;7.50;99.90;;;-144.05;86.70;56986.91;5017693;28;20037;-82
2023/10/28 01:47:45;;;;;;;7.45;1.90;;;7.50;99.90;;;-144.05;86.21;57014.50;5017335;28;20049;-81
2023/10/28 01:50:12;;;;;;;7.40;2.27;;;8.40;99.90;;;-144.05;86.23;57031.50;5016856;28;20147;-81
2023/10/28 01:52:39;;;;;;;11.55;2.65;;;10.40;99.90;;;-144.05;85.83;57010.25;5016890;28;20104;-82
2023/10/28 01:55:07;;;;;;;10.15;2.03;;;7.20;99.90;;;-144.05;85.50;57012.38;5016118;28;20033;-81
2023/10/28 01:57:33;;;;;;;7.72;2.30;;;15.20;99.90;;;-144.05;85.93;57025.13;5016480;28;20033;-79
2023/10/28 02:00:04;;;;;;;6.28;1.80;;;10.40;99.90;;;-144.05;85.49;57018.75;5016219;28;20037;-80
2023/10/28 02:02:31;;;;;;;5.25;1.42;;;7.50;99.90;;;-144.05;85.76;57018.75;5015350;28;20033;-79
2023/10/28 02:04:57;;;;;;;5.35;1.50;;;7.10;99.90;;;-144.05;85.13;57003.88;5015052;28;20018;-80
2023/10/28 02:07:24;;;;;;;6.13;1.60;;;;;;;-144.05;85.03;56999.63;5014783;28;20029;-81
2023/10/28 02:09:49;;;;;;;5.70;1.65;;;7.80;99.90;;;-144.05;85.01;56995.38;5014303;28;20104;-78
2023/10/28 02:12:15;;;;;;;8.05;1.80;;;7.50;99.90;;;-144.05;85.12;57008.13;4996496;28;20113;-79
2023/10/28 02:14:43;;;;;;;3.55;1.50;;;;;;;-144.05;85.36;56986.91;5014107;28;20402;-81
2023/10/28 02:17:10;;;;;;;9.70;2.45;;;7.90;99.90;;;-144.05;84.72;56989.00;5013703;28;20099;-79
2023/10/28 02:19:36;;;;;;;8.15;1.70;;;8.30;99.90;;;-144.05;84.92;56986.91;5013612;28;20026;-79
2023/10/28 02:22:02;;;;;;;8.25;1.75;;;;;;;-144.05;85.34;56965.66;4996147;28;20029;-79
2023/10/28 02:24:28;;;;;;;5.15;1.42;;;;;;;-144.05;85.53;57014.50;5013750;28;20403;-78
2023/10/28 02:26:54;;;;;;;9.18;1.75;;;7.30;99.90;;;-144.05;85.27;56997.50;5013867;28;20080;-79
2023/10/28 02:29:20;;;;;;;5.07;1.40;;;;;;;-144.05;85.32;57001.75;5013667;28;20127;-79
2023/10/28 02:31:48;;;;;;;7.18;1.48;;;6.60;99.90;;;-144.05;84.84;57016.63;5013621;28;20040;-80
2023/10/28 02:34:15;;;;;;;8.20;2.10;;;11.60;99.90;;;-144.05;85.14;57014.50;4995943;28;20058;-80
2023/10/28 02:36:41;;;;;;;4.47;1.70;;;;;;;-144.05;85.69;57001.75;5013538;28;20030;-78
2023/10/28 02:39:09;;;;;;;4.05;1.63;;;;;;;-144.05;85.77;57040.00;5013249;28;20148;-77
2023/10/28 02:41:35;;;;;;;6.38;1.52;;;8.00;99.90;;;-144.05;86.16;56986.91;5013321;28;20562;-80
2023/10/28 02:44:03;;;;;;;7.10;1.73;;;;;;;-144.05;86.34;57003.88;5013303;28;20103;-78
2023/10/28 02:46:28;;;;;;;7.57;1.50;;;8.10;99.90;;;-144.05;85.84;57016.63;5012399;28;20076;-79
2023/10/28 02:48:54;;;;;;;5.00;1.52;;;8.10;99.90;;;-144.05;85.88;57014.50;5013348;28;20030;-80
2023/10/28 02:51:20;;;;;;;7.20;1.60;;;;;;;-144.05;85.42;57020.88;5013239;28;20022;-79
2023/10/28 02:53:47;;;;;;;4.82;1.52;;;;;;;-144.05;85.72;57001.75;4995683;28;20022;-80
2023/10/28 02:56:12;;;;;;;5.88;1.65;;;7.30;99.90;;;-144.05;86.03;57010.25;5013393;28;20534;-81
2023/10/28 02:58:39;;;;;;;5.70;1.80;;;;;;;-144.05;85.94;57008.13;4996674;28;20121;-82
2023/10/28 03:01:13;;;;;;;7.82;1.92;;;7.70;99.90;;;-144.05;85.28;57025.13;5019599;28;20033;-82
2023/10/28 03:03:41;;;;;;;5.90;1.50;;;10.20;99.90;;;-144.05;85.28;57008.13;5002698;28;20022;-82
2023/10/28 03:06:08;;;;;;;7.68;1.92;;;14.90;99.90;;;-144.05;85.99;56986.91;5020614;28;20082;-82
2023/10/28 03:08:34;;;;;;;6.72;1.50;;;8.60;99.90;;;-144.05;86.12;56969.91;5016882;28;20506;-80
2023/10/28 03:11:00;;;;;;;5.47;1.63;;;8.50;99.90;;;-144.05;85.81;56984.78;5012752;28;20038;-79
2023/10/28 03:13:26;;;;;;;5.05;1.50;;;8.00;99.90;;;-144.05;86.23;57016.63;4995629;28;20096;-81
2023/10/28 03:15:52;;;;;;;3.78;1.42;;;;;;;-144.05;85.89;57016.63;5017882;28;20468;-78
2023/10/28 03:18:19;;;;;;;8.48;1.88;;;;;;;-144.05;86.59;57014.50;5016023;28;20061;-80
2023/10/28 03:20:44;;;;;;;5.85;1.88;;;7.70;99.90;;;-144.05;86.44;56991.13;5017194;28;20057;-83
2023/10/28 03:23:10;;;;;;;7.07;2.13;;;8.30;99.90;;;-144.05;86.59;57023.00;5016067;28;20613;-80
2023/10/28 03:25:37;;;;;;;2.33;1.38;;;7.90;99.90;;;-144.05;86.61;57018.75;5016241;28;20072;-78
2023/10/28 03:28:04;;;;;;;6.57;1.50;;;7.70;99.90;;;-144.05;87.02;57023.00;5015843;28;20029;-80
2023/10/28 03:30:31;;;;;;;5.20;1.70;;;7.10;99.90;;;-144.05;86.88;57023.00;5015199;28;20088;-79
2023/10/28 03:32:59;;;;;;;4.63;1.70;;;7.80;99.90;;;-144.05;86.69;56984.78;5014837;28;20034;-81
2023/10/28 03:35:25;;;;;;;4.72;1.60;;;8.00;99.90;;;-144.05;86.74;57006.00;5014642;28;20075;-80
2023/10/28 03:37:51;;;;;;;8.50;2.08;;;14.50;99.90;;;-144.05;87.08;57016.63;5014663;28;20033;-80
2023/10/28 03:40:17;;;;;;;4.25;1.90;;;;;;;-144.05;87.08;56997.50;5013977;28;20394;-79
2023/10/28 03:42:43;;;;;;;4.82;2.10;;;7.60;99.90;;;-144.05;87.35;57006.00;5013531;28;20076;-81
2023/10/28 03:45:09;;;;;;;5.78;2.15;;;10.10;99.90;;;-144.05;88.07;57014.50;5013203;28;20049;-81
2023/10/28 03:47:38;;;;;;;4.80;1.70;;;;;;;-144.05;87.96;57027.25;5013749;28;20034;-81
2023/10/28 03:50:05;;;;;;;9.50;2.78;;;;;;;-144.05;87.92;57014.50;4995416;28;20072;-81
2023/10/28 03:52:32;;;;;;;7.57;2.30;;;8.50;99.90;;;-144.05;88.07;57012.38;5013321;28;20066;-80
2023/10/28 03:54:59;;;;;;;4.93;1.88;;;;;;;-144.05;88.03;56995.38;5012905;28;20033;-80
2023/10/28 03:57:25;;;;;;;8.00;2.50;;;15.10;99.90;;;-144.05;87.68;57008.13;5012631;28;20088;-80
2023/10/28 03:59:50;;;;;;;6.40;2.50;;;11.40;99.90;;;-144.05;87.84;56991.13;5012242;28;20427;-79
2023/10/28 04:02:20;;;;;;;8.25;2.70;;;;;;;-144.05;88.23;57008.13;5012268;28;20069;-81
2023/10/28 04:04:46;;;;;;;5.53;2.40;;;;;;;-144.05;88.26;56991.13;5012252;28;20507;-81
2023/10/28 04:07:12;;;;;;;4.22;2.00;;;7.50;99.90;;;-144.05;88.30;57003.88;5012345;28;20036;-80
2023/10/28 04:09:39;;;;;;;7.10;2.60;;;;;;;-144.05;88.43;56997.50;5012023;28;20100;-80
2023/10/28 04:12:06;;;;;;;4.82;2.40;;;14.60;99.90;;;-144.05;88.60;57014.50;5011863;28;20037;-79
2023/10/28 04:14:35;;;;;;;5.75;2.33;;;10.00;99.90;;;-144.05;88.58;56997.50;5011638;28;20119;-80
2023/10/28 04:17:05;;;;;;;7.15;2.70;;;9.90;99.90;;;-144.05;88.18;56967.78;5011761;28;20463;-79
2023/10/28 04:19:31;;;;;;;4.57;2.40;;;11.60;99.90;;;-144.05;88.27;56993.25;5011892;28;20034;-80
2023/10/28 04:21:57;;;;;;;7.38;2.38;;;;;;;-144.05;88.69;57020.88;5011675;28;20096;-81
2023/10/28 04:24:26;;;;;;;4.10;2.25;;;14.80;99.90;;;-144.05;88.25;56984.78;5012478;28;20041;-82
2023/10/28 04:26:52;;;;;;;6.80;2.90;;;;;;;-144.05;88.74;57010.25;5012264;28;20113;-80
2023/10/28 04:29:19;;;;;;;5.47;2.15;;;;;;;-144.05;88.79;57016.63;5011874;28;20030;-81
2023/10/28 04:31:45;;;;;;;5.38;2.40;;;11.50;99.90;;;-144.05;88.68;57025.13;4994176;28;20032;-81
2023/10/28 04:34:11;;;;;;;5.97;2.65;;;;;;;-144.05;88.93;56997.50;5011577;28;20454;-80
2023/10/28 04:36:37;;;;;;;9.25;2.90;;;;;;;-144.05;89.32;57025.13;4994198;28;20033;-80
2023/10/28 04:39:03;;;;;;;11.77;2.40;;;7.90;99.90;;;-144.05;89.04;56997.50;5011694;28;20053;-81
2023/10/28 04:41:29;;;;;;;5.07;2.13;;;8.10;99.90;;;-144.05;89.16;57016.63;5011990;28;20424;-81
2023/10/28 04:43:55;;;;;;;5.55;2.47;;;7.80;99.90;;;-144.05;89.16;57001.75;4993973;28;20029;-80
2023/10/28 04:46:21;;;;;;;6.88;2.58;;;7.20;99.90;;;-144.05;89.72;57020.88;5011580;28;20093;-80
2023/10/28 04:48:46;;;;;;;9.13;2.88;;;7.00;99.90;;;-144.05;89.53;57027.25;5011577;28;20137;-80
2023/10/28 04:51:13;;;;;;;7.13;3.10;;;11.20;99.90;;;-144.05;89.58;57029.38;4994002;28;20042;-81
2023/10/28 04:53:39;;;;;;;8.15;2.35;;;7.60;99.90;;;-144.05;89.14;57006.00;5011715;28;20029;-81
2023/10/28 04:56:08;;;;;;;10.95;3.22;;;7.50;99.90;;;-144.05;89.46;56995.38;5011642;28;20026;-80
2023/10/28 04:58:35;;;;;;;9.07;2.42;;;14.80;99.90;;;-144.05;89.13;57018.75;4994045;28;20475;-79
2023/10/28 05:01:02;;;;;;;7.00;2.75;;;;;;;-144.05;89.20;57014.50;5011606;28;20037;-81
2023/10/28 05:03:28;;;;;;;7.50;2.70;;;;;;;-144.05;89.22;57025.13;5011739;28;20040;-79
2023/10/28 05:05:55;;;;;;;10.60;2.92;;;;;;;-144.05;88.79;56982.66;5011769;28;20105;-80
2023/10/28 05:08:21;;;;;;;6.88;2.70;;;;;;;-144.05;88.75;57042.13;5011688;28;20197;-80
2023/10/28 05:10:47;;;;;;;5.90;2.63;;;7.60;99.90;;;-144.05;88.77;56978.41;4996488;28;20044;-79
2023/10/28 05:13:13;;;;;;;7.45;2.90;;;14.50;99.90;;;-144.05;89.06;57040.00;4997926;28;20475;-80
2023/10/28 05:15:39;;;;;;;5.03;2.97;;;;;;;-144.05;88.48;57001.75;5016033;28;20054;-78
2023/10/28 05:18:05;;;;;;;5.63;3.00;;;11.50;99.90;;;-144.05;88.90;56989.00;5016032;28;20030;-79
2023/10/28 05:20:35;;;;;;;6.45;3.08;;;7.50;99.90;;;-144.05;88.60;57008.13;5015616;28;20065;-81
2023/10/28 05:23:01;;;;;;;5.90;2.88;;;;;;;-144.05;88.36;57003.88;5016221;28;20046;-79
2023/10/28 05:25:27;;;;;;;8.20;2.92;;;8.40;99.90;;;-144.05;87.88;57003.88;5016470;28;20495;-78
2023/10/28 05:27:53;;;;;;;4.88;2.80;;;;;;;-144.05;87.70;57025.13;5016379;28;20033;-78
2023/10/28 05:30:19;;;;;;;7.03;3.00;;;11.40;99.90;;;-144.05;87.73;57018.75;5016493;28;20026;-80
2023/10/28 05:32:45;;;;;;;7.60;3.40;;;11.30;99.90;;;-144.05;88.22;57012.38;5016041;28;20096;-80
2023/10/28 05:35:13;;;;;;;4.97;2.50;;;;;;;-144.05;87.90;57020.88;5015599;28;20087;-80
2023/10/28 05:37:39;;;;;;;4.28;2.22;;;14.50;99.90;;;-144.05;87.32;57048.50;4998839;28;20033;-81
2023/10/28 05:40:10;;;;;;;5.35;2.80;;;8.40;99.90;;;-144.05;87.48;57031.50;4998402;28;20034;-80
2023/10/28 05:42:40;;;;;;;5.18;2.33;;;7.60;99.90;;;-144.05;88.35;57003.88;5016513;28;20033;-81
2023/10/28 05:45:08;;;;;;;5.13;2.17;;;8.40;99.90;;;-144.05;87.91;57012.38;5016266;28;20036;-78
2023/10/28 05:47:34;;;;;;;5.82;2.30;;;8.10;99.90;;;-144.05;88.03;56999.63;4998699;28;20090;-80
2023/10/28 05:50:04;;;;;;;4.43;2.33;;;7.30;99.90;;;-144.05;87.88;57016.63;4998474;28;20088;-79
2023/10/28 05:52:38;;;;;;;6.20;2.50;;;7.30;99.90;;;-144.05;87.87;56986.91;5016190;28;20045;-81
2023/10/28 05:55:05;;;;;;;9.50;2.67;;;11.30;99.90;;;-144.05;88.01;57048.50;5016397;28;20034;-80
2023/10/28 05:57:31;;;;;;;5.97;2.75;;;7.30;99.90;;;-144.05;87.33;56995.38;5016689;28;20037;-80
2023/10/28 05:59:57;;;;;;;3.53;2.28;;;11.40;99.90;;;-144.05;87.42;57014.50;5016581;28;20518;-80
2023/10/28 06:02:26;;;;;;;7.22;3.00;;;;;;;-144.05;87.98;57001.75;5015622;28;20061;-80
2023/10/28 06:04:52;;;;;;;4.53;2.20;;;;;;;-144.05;88.20;57023.00;5015605;28;20041;-81
2023/10/28 06:07:18;;;;;;;5.45;2.35;;;;;;;-144.05;88.39;57008.13;4998762;28;20125;-80
2023/10/28 06:09:44;;;;;;;3.30;1.98;;;8.50;99.90;;;-144.05;88.46;56997.50;5015931;28;20030;-80
2023/10/28 06:12:13;;;;;;;6.30;2.60;;;7.30;99.90;;;-144.05;87.86;57027.25;5016221;28;20462;-81
2023/10/28 06:14:42;;;;;;;5.78;2.30;;;;;;;-144.05;88.70;56984.78;5015696;28;20405;-80
2023/10/28 06:17:08;;;;;;;8.13;2.58;;;;;;;-144.05;88.53;57016.63;5000253;28;20093;-76
2023/10/28 06:19:34;;;;;;;6.38;2.58;;;10.90;99.90;;;-144.05;88.25;56984.78;5018014;28;20115;-81
2023/10/28 06:22:00;;;;;;;5.82;2.67;;;7.50;99.90;;;-144.05;88.12;57016.63;5000274;28;20026;-80
2023/10/28 06:24:28;;;;;;;4.38;2.10;;;;;;;-144.05;87.91;57001.75;5019200;28;20026;-80
2023/10/28 06:26:55;;;;;;;4.97;2.75;;;7.40;99.90;;;-144.05;88.17;57023.00;5020844;28;20043;-82
2023/10/28 06:29:21;;;;;;;5.15;2.55;;;;;;;-144.05;87.77;56984.78;5020206;28;20140;-79
2023/10/28 06:31:47;;;;;;;8.23;2.42;;;;;;;-144.05;88.10;56999.63;5038950;28;20076;-80
2023/10/28 06:34:13;;;;;;;6.13;2.20;;;11.40;99.90;;;-144.05;87.97;57001.75;5036789;28;20064;-78
2023/10/28 06:36:40;;;;;;;12.15;2.75;;;;;;;-144.05;87.84;57035.75;5019337;28;20033;-79
2023/10/28 06:39:08;;;;;;;7.28;2.40;;;8.10;99.90;;;-144.05;87.95;57029.38;5016993;28;20041;-80
2023/10/28 06:41:35;;;;;;;5.88;2.05;;;;;;;-144.05;87.88;57042.13;5017454;28;20033;-80
2023/10/28 06:44:05;;;;;;;5.72;2.17;;;7.30;99.90;;;-144.05;87.90;57014.50;5017167;28;20103;-77
2023/10/28 06:46:32;;;;;;;5.05;2.15;;;7.50;99.90;;;-144.05;87.66;57031.50;4999109;28;20372;-79
2023/10/28 06:48:59;;;;;;;5.35;1.80;;;11.10;99.90;;;-144.05;87.56;56999.63;5016502;28;20101;-82
2023/10/28 06:51:25;;;;;;;3.80;2.05;;;;;;;-144.05;87.75;57042.13;4998544;28;20026;-80
2023/10/28 06:53:51;;;;;;;3.60;1.40;;;11.50;99.90;;;-144.05;87.00;57008.13;5015994;28;20057;-79
2023/10/28 06:56:17;;;;;;;2.75;1.52;;;;;;;-144.05;87.52;57018.75;5016068;28;20517;-81
2023/10/28 06:58:44;;;;;;;4.32;1.27;;;;;;;-144.05;86.96;57006.00;5015265;28;20109;-81
2023/10/28 07:01:10;;;;;;;2.00;1.17;;;;;;;-144.05;87.23;57040.00;4997747;28;20433;-79
2023/10/28 07:03:40;;;;;;;4.28;1.33;;;8.00;99.90;;;-144.05;87.53;56997.50;5015365;28;20025;-82
2023/10/28 07:06:09;;;;;;;2.17;1.10;;;14.80;99.90;;;-144.05;87.60;57012.38;4998316;28;20064;-78
2023/10/28 07:08:36;;;;;;;2.00;1.55;;;14.60;99.90;;;-144.05;87.85;57008.13;5015256;28;20072;-79
2023/10/28 07:11:02;;;;;;;4.63;1.20;;;15.20;99.90;;;-144.05;87.07;57014.50;5015907;28;20022;-80
2023/10/28 07:13:28;;;;;;;2.17;1.15;;;;;;;-144.05;87.08;57018.75;4989719;28;20190;-79
2023/10/28 07:16:02;;;;;;;3.03;1.25;;;15.10;99.90;;;-144.05;86.37;56984.78;4997164;28;20530;-80
2023/10/28 07:18:32;;;;;;;3.28;1.10;;;;;;;-144.05;86.02;57033.63;5014794;28;20041;-79
2023/10/28 07:21:02;;;;;;;2.88;1.10;;;10.30;99.90;;;-144.05;85.64;57023.00;5015111;28;20116;-79
2023/10/28 07:23:30;;;;;;;2.17;1.00;;;;;;;-144.05;85.06;56999.63;5015521;28;20022;-80
2023/10/28 07:25:59;;;;;;;2.60;1.00;;;10.60;99.90;;;-144.05;84.38;57003.88;5014503;28;20113;-80
2023/10/28 07:28:25;;;;;;;3.25;1.02;;;14.30;99.90;;;-144.05;83.36;57010.25;5013791;28;20029;-78
2023/10/28 07:30:52;;;;;;;1.95;0.90;;;;;;;-144.05;83.39;57001.75;4995665;28;20033;-80
2023/10/28 07:33:21;;;;;;;2.97;0.80;;;15.20;99.90;;;-144.05;83.49;57010.25;5012872;28;20030;-77
2023/10/28 07:35:50;;;;;;;2.53;1.20;;;10.70;99.90;;;-144.05;83.72;57018.75;5014254;28;20029;-78
2023/10/28 07:38:17;;;;;;;3.15;1.00;;;;;;;-144.05;82.86;56991.13;5014689;28;20108;-78
2023/10/28 07:40:45;;;;;;;2.63;0.80;;;8.50;99.90;;;-144.05;82.47;57014.50;5016813;28;20037;-79
2023/10/28 07:43:13;;;;;;;3.85;1.30;;;11.70;99.90;;;-144.05;82.63;57018.75;5017295;28;20030;-81
2023/10/28 07:45:41;;;;;;;4.97;0.90;;;7.90;99.90;;;-144.05;81.96;57012.38;5017541;28;20061;-82
2023/10/28 07:48:09;;;;;;;5.15;1.40;;;7.50;99.90;;;-144.05;82.49;56999.63;5016266;28;20521;-82
2023/10/28 07:50:40;;;;;;;4.93;1.33;;;8.40;99.90;;;-144.05;81.49;57008.13;4998433;28;20033;-82
2023/10/28 07:53:06;;;;;;;1.58;0.80;;;15.20;99.90;;;-144.05;81.05;56986.91;5015072;28;20065;-78
2023/10/28 07:55:34;;;;;;;1.33;0.95;;;11.70;99.90;;;-144.05;79.23;57010.25;5014386;28;20106;-78
2023/10/28 07:58:01;;;;;;;2.88;0.80;;;15.20;99.90;;;-144.05;79.45;57020.88;5014765;28;20521;-80
2023/10/28 08:00:28;;;;;;;1.00;0.60;;;;;;;-144.05;79.62;56974.16;4997229;28;20034;-81
2023/10/28 08:02:54;;;;;;;2.17;0.70;;;8.50;99.90;;;-144.05;79.69;56995.38;5014652;28;20109;-80
2023/10/28 08:05:20;;;;;;;4.50;0.75;;;8.00;99.90;;;-144.05;79.93;57001.75;5013836;28;20061;-79
2023/10/28 08:07:50;;;;;;;2.58;0.80;;;15.60;99.90;;;-144.05;80.00;56989.00;4996489;28;20037;-78
2023/10/28 08:10:22;;;;;;;1.15;0.75;;;15.00;99.90;;;-144.05;78.75;57012.38;5014463;28;20038;-80
2023/10/28 08:12:54;;;;;;;1.23;0.60;;;9.30;99.90;;;-144.05;75.70;56965.66;4996261;28;20036;-80
2023/10/28 08:15:24;;;;;;;2.67;0.65;;;9.30;99.90;;;-144.05;74.42;56980.53;5013629;28;20041;-80
2023/10/28 08:17:51;;;;;;;4.18;1.45;;;;;;;-144.05;75.17;56984.78;5013512;28;20036;-83
2023/10/28 08:20:17;;;;;;;2.60;0.40;;;9.30;99.90;;;-144.05;76.11;56989.00;4995678;28;20057;-77
2023/10/28 08:22:45;;;;;;;1.25;0.52;;;9.20;99.90;;;-144.05;75.90;56999.63;4996012;28;20030;-79
2023/10/28 08:25:16;;;;;;;3.38;0.60;;;12.40;99.90;;;-144.05;76.64;57003.88;5012468;28;20021;-78
2023/10/28 08:27:44;;;;;;;3.20;0.63;;;15.30;99.90;;;-144.05;76.41;56989.00;5013682;28;20097;-77
2023/10/28 08:30:20;;;;;;;1.48;0.50;;;14.90;99.90;;;-144.05;77.42;57010.25;4995513;28;20141;-77
2023/10/28 08:32:46;;;;;;;1.35;0.57;;;15.60;99.90;;;-144.05;77.68;57006.00;5013355;28;20126;-77
2023/10/28 08:35:13;;;;;;;1.15;0.60;;;;;;;-144.05;78.42;57008.13;4995776;28;20068;-78
2023/10/28 08:37:39;;;;;;;2.88;0.60;;;15.60;99.90;;;-144.05;79.52;57003.88;5013511;28;20080;-79
2023/10/28 08:40:10;;;;;;;1.83;0.60;;;;;;;-144.05;79.30;56989.00;4994625;28;20034;-79
2023/10/28 08:42:36;;;;;;;1.85;0.50;;;15.30;99.90;;;-144.05;79.64;56980.53;4995488;28;20030;-77
2023/10/28 08:45:07;;;;;;;2.28;1.15;;;11.70;99.90;;;-144.05;80.15;57010.25;5012450;28;20076;-78
2023/10/28 08:47:40;;;;;;;2.25;0.50;;;15.30;99.90;;;-144.05;79.99;57001.75;4996885;28;20037;-79
2023/10/28 08:50:09;;;;;;;3.78;0.68;;;11.70;99.90;;;-144.05;80.31;57006.00;5014682;28;20025;-80
2023/10/28 08:52:40;;;;;;;1.25;0.60;;;15.10;99.90;;;-144.05;79.89;57018.75;5015938;28;20088;-76
2023/10/28 08:55:10;;;;;;;4.72;0.85;;;;;;;-144.05;80.37;57035.75;4997313;28;20022;-79
2023/10/28 08:57:45;;;;;;;2.70;0.80;;;8.10;99.90;;;-144.05;81.02;56997.50;5014805;28;20057;-79
2023/10/28 09:00:16;;;;;;;1.67;0.50;;;15.40;99.90;;;-144.05;80.41;57003.88;5013784;28;20034;-78
2023/10/28 09:02:49;;;;;;;1.98;0.43;;;8.40;99.90;;;-144.05;81.34;56989.00;5013801;28;20022;-77
2023/10/28 09:05:16;;;;;;;1.42;0.50;;;8.60;99.90;;;-144.05;80.87;57001.75;5013019;28;20495;-78
2023/10/28 09:07:45;;;;;;;3.17;0.50;;;8.10;99.90;;;-144.05;81.19;56991.13;5013356;28;20022;-77
2023/10/28 09:10:13;;;;;;;3.47;0.60;;;8.20;99.90;;;-144.05;81.99;56986.91;5013338;28;20087;-78
2023/10/28 09:12:40;;;;;;;3.50;0.55;;;8.20;99.90;;;-144.05;82.09;56995.38;5013406;28;20483;-78
2023/10/28 09:15:11;;;;;;;2.28;0.47;;;8.40;99.90;;;-144.05;81.61;56972.03;5013673;28;20040;-79
2023/10/28 09:17:39;;;;;;;0.77;0.55;;;8.00;99.90;;;-144.05;82.23;56997.50;5014060;28;20117;-80
2023/10/28 09:20:09;;;;;;;1.98;0.60;;;11.70;99.90;;;-144.05;82.05;57001.75;4995860;28;20030;-80
2023/10/28 09:22:42;;;;;;;0.93;0.40;;;8.20;99.90;;;-144.05;81.56;56999.63;5013889;28;20090;-77
2023/10/28 09:25:11;;;;;;;2.78;0.60;;;11.80;99.90;;;-144.05;81.89;57014.50;5013601;28;20379;-78
2023/10/28 09:27:38;;;;;;;1.80;0.50;;;15.30;99.90;;;-144.05;80.66;57006.00;5013800;28;20030;-78
2023/10/28 09:30:11;;;;;;;1.42;0.57;;;15.50;99.90;;;-144.05;82.31;57029.38;5013236;28;20022;-78
2023/10/28 09:32:38;;;;;;;2.08;0.60;;;15.60;99.90;;;-144.05;81.82;56995.38;5013385;28;20029;-78
2023/10/28 09:35:08;;;;;;;1.83;0.50;;;15.40;99.90;;;-144.05;82.72;56995.38;5014169;28;20110;-80
2023/10/28 09:37:37;;;;;;;2.35;0.57;;;15.30;99.90;;;-144.05;82.09;56974.16;5013954;28;20104;-76
2023/10/28 09:40:07;;;;;;;3.85;0.50;;;14.30;99.90;;;-144.05;80.44;57020.88;5012420;28;20518;-76
2023/10/28 09:42:38;;;;;;;1.30;0.70;;;15.70;99.90;;;-144.05;80.33;57014.50;5013674;28;20053;-79
2023/10/28 09:45:09;;;;;;;0.70;0.47;;;8.40;99.90;;;-144.05;79.94;56986.91;4995642;28;20026;-79
2023/10/28 09:47:58;;;;;;;6.85;0.50;;;9.00;99.90;;;-144.05;79.67;56984.78;5012983;28;20026;-79
2023/10/28 09:50:29;;;;;;;1.88;0.50;;;8.90;99.90;;;-144.05;80.28;57020.88;5013257;28;20129;-77
2023/10/28 09:52:58;;;;;;;1.33;0.52;;;9.30;99.90;;;-144.05;79.79;57001.75;4996117;28;20034;-78
2023/10/28 09:55:34;;;;;;;3.17;0.90;;;15.50;99.90;;;-144.05;78.70;56999.63;5013972;28;20037;-78
2023/10/28 09:58:25;;;;;;;2.53;1.05;;;12.70;99.90;;;-144.05;78.36;56989.00;5017423;28;20061;-78
2023/10/28 10:01:08;;;;;;;2.25;0.40;;;9.30;99.90;;;-144.05;78.72;56955.03;5000227;28;20037;-80
2023/10/28 10:04:29;;;;;;;0.52;0.30;;;15.60;99.90;;;-144.05;79.89;56980.53;5016911;28;20077;-80
2023/10/28 10:06:56;;;;;;;1.67;0.43;;;9.20;99.90;;;-144.05;80.26;57006.00;4999567;28;20030;-78
2023/10/28 10:09:22;;;;;;;3.00;0.63;;;8.90;99.90;;;-144.05;80.62;57018.75;4999679;28;20044;-79
2023/10/28 10:11:50;;;;;;;1.73;0.50;;;9.60;99.90;;;-144.05;79.91;57006.00;5016411;28;20037;-81
2023/10/28 10:14:21;;;;;;;1.50;0.40;;;12.50;99.90;;;-144.05;80.64;56989.00;5015889;28;20042;-78
2023/10/28 10:17:12;;;;;;;1.95;0.70;;;9.40;99.90;;;-144.05;80.29;56997.50;5017032;28;20034;-80
2023/10/28 10:19:39;;;;;;;1.33;0.50;;;;;;;-144.05;79.49;56995.38;5010843;28;20034;-79
2023/10/28 10:22:08;;;;;;;1.50;0.52;;;15.40;99.90;;;-144.05;78.68;56997.50;5016548;28;20026;-81
2023/10/28 10:24:35;;;;;;;2.15;0.60;;;15.60;99.90;;;-144.05;79.20;56999.63;5017522;28;20392;-81
2023/10/28 10:27:03;;;;;;;2.22;0.82;;;15.70;99.90;;;-144.05;79.34;56984.78;5018398;28;20018;-81
2023/10/28 10:29:42;;;;;;;3.13;0.70;;;9.20;99.90;;;-144.05;78.57;57010.25;5018431;28;20029;-80